TimeEST,TemperatureF,Dew PointF,Humidity,Sea Level PressureIn,VisibilityMPH,Wind Direction,Wind SpeedMPH,Gust SpeedMPH,PrecipitationIn,Events,Conditions,WindDirDegrees,DateUTC
12:54 AM,28.0,18.0,66,30.03,10.0,North,15.0,24.2,N/A,,Clear,350,2013-02-04 05:54:00
1:54 AM,27.0,18.0,69,30.03,10.0,North,17.3,26.5,N/A,,Clear,350,2013-02-04 06:54:00
2:54 AM,27.0,18.0,69,30.02,10.0,North,8.1,19.6,N/A,,Clear,360,2013-02-04 07:54:00
3:54 AM,26.1,18.0,71,30.04,10.0,NNW,11.5,-,N/A,,Clear,340,2013-02-04 08:54:00
5:54 AM,26.1,19.0,75,30.04,10.0,North,11.5,-,N/A,,Clear,350,2013-02-04 10:54:00
6:54 AM,27.0,18.0,69,30.07,10.0,NNW,8.1,-,N/A,,Clear,340,2013-02-04 11:54:00
7:54 AM,28.0,18.0,66,30.10,10.0,Calm,Calm,-,N/A,,Clear,0,2013-02-04 12:54:00
8:54 AM,28.9,19.0,67,30.12,10.0,Calm,Calm,-,N/A,,Clear,0,2013-02-04 13:54:00
9:54 AM,30.9,19.9,64,30.12,10.0,Calm,Calm,-,N/A,,Scattered Clouds,0,2013-02-04 14:54:00
10:54 AM,35.1,19.0,52,30.12,10.0,Calm,Calm,-,N/A,,Clear,0,2013-02-04 15:54:00
11:54 AM,37.0,19.9,50,30.09,10.0,Variable,3.5,-,N/A,,Clear,0,2013-02-04 16:54:00
12:54 PM,45.0,21.0,39,30.04,10.0,South,4.6,-,N/A,,Clear,170,2013-02-04 17:54:00
1:54 PM,51.1,19.9,29,29.99,10.0,South,10.4,21.9,N/A,,Clear,190,2013-02-04 18:54:00
2:54 PM,51.1,19.9,29,29.98,10.0,SSW,8.1,17.3,N/A,,Partly Cloudy,200,2013-02-04 19:54:00
3:54 PM,50.0,19.0,29,29.98,10.0,SSW,11.5,-,N/A,,Partly Cloudy,200,2013-02-04 20:54:00
4:54 PM,46.9,19.0,33,29.98,10.0,South,13.8,-,N/A,,Scattered Clouds,170,2013-02-04 21:54:00
5:54 PM,45.0,21.0,39,29.98,10.0,South,9.2,-,N/A,,Mostly Cloudy,180,2013-02-04 22:54:00
6:54 PM,42.1,21.0,43,30.00,10.0,SSE,8.1,-,N/A,,Partly Cloudy,160,2013-02-04 23:54:00
7:54 PM,41.0,21.9,47,29.99,10.0,ESE,3.5,-,N/A,,Overcast,120,2013-02-05 00:54:00
8:54 PM,39.9,21.9,49,30.00,10.0,South,6.9,-,N/A,,Overcast,170,2013-02-05 01:54:00
9:54 PM,39.9,21.9,49,30.01,10.0,South,6.9,-,N/A,,Overcast,190,2013-02-05 02:54:00
10:54 PM,39.0,24.1,55,29.99,10.0,SSE,6.9,-,N/A,,Overcast,160,2013-02-05 03:54:00
11:54 PM,37.9,24.1,57,29.98,10.0,South,6.9,-,N/A,,Overcast,180,2013-02-05 04:54:00